createdAt,value
2023-01-05T00:02:08.961Z,43.21
2023-01-05T00:07:11.787Z,43.31
2023-01-05T00:12:32.472Z,43.37
2023-01-05T00:17:53.821Z,43.11
2023-01-05T00:22:56.548Z,43.20
2023-01-05T00:27:59.457Z,43.20
2023-01-05T00:33:03.634Z,43.22
2023-01-05T00:38:07.803Z,43.16
2023-01-05T00:43:10.752Z,43.30
2023-01-05T00:48:14.939Z,43.21
2023-01-05T00:53:17.850Z,43.33
2023-01-05T00:58:20.690Z,43.27
2023-01-05T01:03:24.941Z,43.48
2023-01-05T01:08:27.811Z,43.51
2023-01-05T01:13:30.556Z,43.52
2023-01-05T01:18:34.650Z,43.80
2023-01-05T01:23:37.821Z,43.64
2023-01-05T01:28:40.620Z,43.79
2023-01-05T01:33:44.713Z,43.99
2023-01-05T01:38:47.587Z,44.03
2023-01-05T01:43:51.510Z,44.46
2023-01-05T01:48:59.294Z,44.67
2023-01-05T01:54:03.941Z,44.87
2023-01-05T01:59:06.808Z,44.97
2023-01-05T02:04:11.322Z,44.97
2023-01-05T02:09:14.374Z,45.39
2023-01-05T02:14:22.474Z,45.31
2023-01-05T02:20:01.949Z,45.30
2023-01-05T02:25:16.966Z,45.52
2023-01-05T02:31:04.558Z,45.66
2023-01-05T02:36:22.194Z,46.06
2023-01-05T02:41:34.092Z,45.63
2023-01-05T02:46:38.458Z,46.21
2023-01-05T02:51:50.420Z,46.60
2023-01-05T02:56:55.643Z,46.55
2023-01-05T03:02:00.326Z,46.31
2023-01-05T03:07:05.526Z,46.79
2023-01-05T03:12:30.786Z,46.76
2023-01-05T03:17:36.069Z,46.88
2023-01-05T03:22:58.666Z,47.05
2023-01-05T03:28:19.735Z,47.32
2023-01-05T03:33:44.531Z,47.51
2023-01-05T03:38:49.209Z,47.68
2023-01-05T03:43:52.145Z,47.64
2023-01-05T03:48:55.993Z,47.98
2023-01-05T03:54:01.744Z,48.03
2023-01-05T03:59:07.268Z,47.91
2023-01-05T04:04:12.609Z,47.76
2023-01-05T04:09:16.871Z,48.09
2023-01-05T04:14:21.339Z,48.43
2023-01-05T04:19:24.559Z,48.42
2023-01-05T04:24:31.320Z,48.60
2023-01-05T04:29:36.633Z,48.58
2023-01-05T04:34:39.527Z,48.63
2023-01-05T04:39:44.769Z,48.39
2023-01-05T04:44:48.813Z,48.51
2023-01-05T04:49:51.680Z,48.51
2023-01-05T04:54:55.865Z,48.63
2023-01-05T05:00:00.124Z,48.81
2023-01-05T05:05:06.160Z,48.79
2023-01-05T05:10:12.296Z,48.87
2023-01-05T05:15:18.187Z,48.51
2023-01-05T05:20:24.876Z,48.59
2023-01-05T05:25:30.864Z,48.41
2023-01-05T05:30:33.874Z,48.62
2023-01-05T05:35:36.635Z,48.80
2023-01-05T05:40:40.835Z,48.91
2023-01-05T05:45:49.575Z,48.96
2023-01-05T05:50:53.647Z,48.74
2023-01-05T05:55:57.732Z,48.69
2023-01-05T06:01:00.482Z,48.70
2023-01-05T06:06:03.403Z,48.76
2023-01-05T06:11:08.065Z,48.84
2023-01-05T06:16:11.270Z,48.71
2023-01-05T06:21:14.097Z,48.98
2023-01-05T06:26:18.225Z,48.96
2023-01-05T06:31:21.056Z,49.06
2023-01-05T06:36:23.896Z,49.02
2023-01-05T06:41:28.064Z,48.94
2023-01-05T06:46:30.804Z,48.87
2023-01-05T06:51:33.606Z,48.94
2023-01-05T06:56:37.724Z,48.85
2023-01-05T07:01:40.588Z,49.02
2023-01-05T07:06:43.411Z,48.97
2023-01-05T07:11:47.581Z,48.88
2023-01-05T07:16:50.474Z,48.85
2023-01-05T07:21:56.790Z,49.00
2023-01-05T07:27:06.107Z,48.91
2023-01-05T07:32:12.244Z,48.93
2023-01-05T07:37:15.089Z,49.19
2023-01-05T07:42:19.256Z,48.88
2023-01-05T07:47:23.983Z,48.60
2023-01-05T07:52:26.853Z,48.92
2023-01-05T07:57:30.971Z,48.95
2023-01-05T08:02:36.017Z,48.73
2023-01-05T08:07:39.312Z,48.55
2023-01-05T08:12:57.401Z,48.16
2023-01-05T08:18:00.209Z,47.24
2023-01-05T08:23:02.918Z,46.35
2023-01-05T08:28:07.192Z,43.35
2023-01-05T08:33:10.047Z,43.64
2023-01-05T08:38:12.808Z,44.35
2023-01-05T08:43:17.013Z,45.94
2023-01-05T08:48:19.858Z,45.74
2023-01-05T08:53:22.607Z,45.68
2023-01-05T08:58:26.743Z,45.45
2023-01-05T09:03:29.620Z,45.30
2023-01-05T09:08:32.570Z,45.08
2023-01-05T09:13:36.740Z,45.43
2023-01-05T09:18:40.488Z,45.14
2023-01-05T09:23:43.368Z,45.45
2023-01-05T09:28:47.523Z,45.66
2023-01-05T09:33:50.288Z,45.66
2023-01-05T09:38:54.039Z,46.21
2023-01-05T09:43:59.595Z,46.56
2023-01-05T09:49:03.704Z,46.88
2023-01-05T09:54:06.566Z,48.27
2023-01-05T09:59:15.128Z,49.16
2023-01-05T10:04:19.109Z,49.05
2023-01-05T10:09:23.484Z,48.98
2023-01-05T10:14:30.473Z,48.75
2023-01-05T10:19:33.225Z,48.74
2023-01-05T10:24:43.059Z,49.01
2023-01-05T10:29:47.791Z,48.90
2023-01-05T10:34:57.164Z,46.45
2023-01-05T10:40:03.917Z,47.01
2023-01-05T10:45:10.403Z,48.09
2023-01-05T10:50:39.588Z,48.11
2023-01-05T10:55:52.886Z,47.40
2023-01-05T11:00:57.986Z,47.13
2023-01-05T11:06:00.972Z,46.91
2023-01-05T11:11:05.533Z,46.68
2023-01-05T11:16:12.811Z,46.60
2023-01-05T11:21:16.892Z,46.51
2023-01-05T11:26:31.159Z,46.27
2023-01-05T11:31:36.842Z,46.41
2023-01-05T11:36:39.786Z,46.66
2023-01-05T11:41:43.694Z,46.86
2023-01-05T11:46:48.453Z,46.83
2023-01-05T11:51:51.255Z,47.10
2023-01-05T11:56:55.500Z,47.43
2023-01-05T12:02:03.831Z,47.78
2023-01-05T12:07:21.547Z,47.74
2023-01-05T12:12:40.388Z,48.29
2023-01-05T12:17:49.052Z,48.66
2023-01-05T12:23:02.574Z,48.68
2023-01-05T12:28:35.790Z,49.04
2023-01-05T12:34:04.185Z,48.95
2023-01-05T12:39:20.477Z,48.66
2023-01-05T12:44:35.399Z,48.89
2023-01-05T12:49:41.309Z,49.11
2023-01-05T12:54:46.178Z,48.73
2023-01-05T12:59:52.920Z,49.16
2023-01-05T13:04:59.185Z,49.03
2023-01-05T13:10:03.929Z,48.93
2023-01-05T13:15:16.617Z,49.22
2023-01-05T13:20:25.625Z,48.59
2023-01-05T13:25:29.735Z,48.84
2023-01-05T13:30:34.166Z,48.90
2023-01-05T13:35:52.405Z,48.84
2023-01-05T13:41:10.605Z,49.00
2023-01-05T13:46:30.504Z,48.91
2023-01-05T13:51:41.721Z,49.30
2023-01-05T13:56:46.518Z,49.59
2023-01-05T14:01:49.426Z,49.32
2023-01-05T14:06:54.886Z,49.25
2023-01-05T14:12:42.538Z,49.77
2023-01-05T14:17:58.003Z,50.31
2023-01-05T14:23:02.793Z,50.61
2023-01-05T14:28:23.107Z,50.86
2023-01-05T14:33:25.894Z,51.10
2023-01-05T14:38:30.172Z,50.86
2023-01-05T14:43:33.999Z,51.12
2023-01-05T14:48:37.856Z,51.53
2023-01-05T14:53:43.107Z,51.52
2023-01-05T14:58:55.732Z,51.63
2023-01-05T15:04:01.553Z,51.65
2023-01-05T15:09:16.052Z,51.50
2023-01-05T15:14:35.275Z,51.62
2023-01-05T15:19:59.467Z,51.58
2023-01-05T15:25:27.468Z,51.38
2023-01-05T15:30:42.598Z,51.22
2023-01-05T15:35:48.958Z,51.04
2023-01-05T15:40:59.120Z,50.70
2023-01-05T15:46:02.015Z,50.53
2023-01-05T15:51:06.003Z,50.40
2023-01-05T15:56:26.775Z,50.47
2023-01-05T16:01:29.731Z,50.31
2023-01-05T16:06:32.580Z,49.93
2023-01-05T16:11:38.674Z,49.93
2023-01-05T16:16:52.671Z,49.67
2023-01-05T16:21:58.461Z,49.45
2023-01-05T16:27:03.607Z,49.02
2023-01-05T16:32:24.819Z,48.80
2023-01-05T16:37:27.876Z,48.80
2023-01-05T16:42:40.844Z,48.80
2023-01-05T16:47:43.746Z,48.42
2023-01-05T16:52:52.576Z,48.29
2023-01-05T16:57:56.840Z,49.37
2023-01-05T17:03:00.141Z,49.16
2023-01-05T17:08:06.740Z,48.72
2023-01-05T17:13:13.435Z,48.62
2023-01-05T17:18:17.377Z,48.52
2023-01-05T17:23:22.460Z,48.29
2023-01-05T17:28:26.799Z,48.12
2023-01-05T17:33:29.701Z,47.91
2023-01-05T17:38:32.537Z,47.83
2023-01-05T17:43:36.748Z,47.73
2023-01-05T17:48:39.567Z,47.59
2023-01-05T17:53:42.342Z,47.23
2023-01-05T17:58:46.496Z,47.22
2023-01-05T18:03:49.406Z,47.05
2023-01-05T18:08:52.148Z,46.93
2023-01-05T18:13:56.353Z,47.02
2023-01-05T18:18:59.178Z,46.61
2023-01-05T18:24:02.122Z,46.38
2023-01-05T18:29:06.304Z,46.33
2023-01-05T18:34:14.263Z,46.36
2023-01-05T18:39:17.213Z,46.26
2023-01-05T18:44:21.465Z,45.83
2023-01-05T18:49:24.364Z,45.81
2023-01-05T18:54:27.192Z,45.85
2023-01-05T18:59:31.343Z,45.78
2023-01-05T19:04:34.122Z,45.38
2023-01-05T19:09:38.071Z,45.56
2023-01-05T19:14:42.238Z,45.62
2023-01-05T19:19:45.101Z,45.30
2023-01-05T19:24:47.870Z,45.37
2023-01-05T19:29:51.996Z,45.64
2023-01-05T19:34:54.851Z,45.85
2023-01-05T19:39:57.735Z,46.22
2023-01-05T19:45:03.497Z,46.18
2023-01-05T19:50:07.810Z,46.12
2023-01-05T19:55:11.911Z,45.96
2023-01-05T20:00:17.524Z,45.74
2023-01-05T20:05:20.327Z,45.65
2023-01-05T20:10:23.228Z,45.41
2023-01-05T20:15:27.436Z,45.35
2023-01-05T20:20:30.307Z,45.40
2023-01-05T20:25:33.098Z,45.16
2023-01-05T20:30:37.452Z,45.12
2023-01-05T20:35:40.968Z,44.96
2023-01-05T20:40:43.892Z,45.14
2023-01-05T20:45:48.302Z,45.01
2023-01-05T20:50:51.075Z,44.94
2023-01-05T20:55:53.857Z,45.09
2023-01-05T21:01:10.968Z,45.06
2023-01-05T21:06:15.691Z,45.18
2023-01-05T21:11:19.231Z,45.09
2023-01-05T21:16:24.680Z,45.04
2023-01-05T21:21:28.039Z,44.90
2023-01-05T21:26:30.854Z,44.89
2023-01-05T21:31:36.965Z,44.80
2023-01-05T21:36:43.205Z,44.88
2023-01-05T21:42:03.304Z,44.94
2023-01-05T21:47:07.554Z,44.93
2023-01-05T21:52:28.449Z,45.01
2023-01-05T21:57:31.312Z,44.92
2023-01-05T22:02:35.930Z,45.09
2023-01-05T22:07:38.813Z,44.98
2023-01-05T22:12:41.699Z,45.01
2023-01-05T22:17:45.979Z,45.11
2023-01-05T22:22:48.807Z,44.92
2023-01-05T22:27:51.555Z,45.00
2023-01-05T22:32:56.428Z,44.93
2023-01-05T22:37:59.966Z,45.03
2023-01-05T22:43:02.983Z,44.90
2023-01-05T22:48:07.581Z,44.94
2023-01-05T22:53:10.348Z,45.05
2023-01-05T22:58:13.171Z,44.98
2023-01-05T23:03:17.369Z,44.96
2023-01-05T23:08:20.186Z,45.07
2023-01-05T23:13:22.951Z,45.03
2023-01-05T23:18:27.193Z,45.08
2023-01-05T23:23:30.042Z,44.82
2023-01-05T23:28:32.855Z,44.98
2023-01-05T23:33:37.469Z,45.10
2023-01-05T23:38:40.450Z,45.13
2023-01-05T23:43:44.971Z,44.88
2023-01-05T23:48:49.317Z,45.00
2023-01-05T23:53:53.229Z,45.43
2023-01-05T23:58:58.006Z,45.41
